Time;durP1;ratioP1;P1;durP2;ratioP2;P2;SDS_P1;SDS_P2;PMS_P1;PMS_P2;Temp;Humidity;BMP_temperature;BMP_pressure;BME280_temperature;BME280_humidity;BME280_pressure;Samples;Min_cycle;Max_cycle;Signal;HPM_P1;HPM_P2
2023/06/12 00:01:06;;;;;;;2.47;1.50;;;;;;;20.88;52.96;100926.44;4993742;28;20041;-49
2023/06/12 00:03:33;;;;;;;6.28;1.92;;;;;;;20.77;52.81;100929.16;4993663;28;20022;-49
2023/06/12 00:06:00;;;;;;;5.13;1.40;;;;;;;20.74;52.04;100923.44;4993471;28;20052;-50
2023/06/12 00:08:29;;;;;;;3.20;1.80;;;;;;;20.33;53.26;100933.44;4993473;28;20483;-48
2023/06/12 00:10:55;;;;;;;2.92;1.65;;;;;;;20.18;54.22;100931.47;4993523;28;20034;-48
2023/06/12 00:13:22;;;;;;;3.38;1.95;;;;;;;20.03;55.06;100946.63;4993504;28;20382;-48
2023/06/12 00:15:49;;;;;;;2.63;1.70;;;;;;;19.98;55.82;100948.50;4993399;28;20030;-46
2023/06/12 00:18:16;;;;;;;3.55;1.80;;;;;;;19.91;56.26;100947.97;4993125;28;20093;-47
2023/06/12 00:20:42;;;;;;;3.47;1.75;;;;;;;19.71;55.50;100946.78;4992860;28;20076;-47
2023/06/12 00:23:12;;;;;;;5.68;1.73;;;;;;;19.68;55.69;100952.75;4993373;28;20109;-50
2023/06/12 00:25:39;;;;;;;2.88;1.27;;;;;;;19.58;57.39;100963.50;4995393;28;20025;-50
2023/06/12 00:28:06;;;;;;;4.60;1.85;;;;;;;19.64;56.11;100970.63;4997184;28;20034;-49
2023/06/12 00:30:32;;;;;;;5.50;2.15;;;;;;;19.40;56.72;100962.06;4997219;28;20065;-47
2023/06/12 00:33:00;;;;;;;3.45;1.65;;;;;;;19.28;57.00;100958.72;4997055;28;20023;-50
2023/06/12 00:35:26;;;;;;;3.58;2.33;;;;;;;19.04;57.80;100965.56;4996962;28;20112;-47
2023/06/12 00:37:52;;;;;;;3.65;2.10;;;;;;;18.85;57.94;100962.44;4997042;28;20050;-50
2023/06/12 00:40:19;;;;;;;3.85;2.03;;;;;;;18.81;58.99;100964.03;4996791;28;20050;-50
2023/06/12 00:42:48;;;;;;;3.03;1.58;;;;;;;18.62;59.64;100964.38;4996966;28;20022;-50
2023/06/12 00:45:23;;;;;;;3.13;1.80;;;;;;;18.49;59.90;100970.22;4997753;28;20027;-49
2023/06/12 00:47:56;;;;;;;5.30;1.90;;;;;;;18.34;59.58;100972.75;4997377;28;20026;-50
2023/06/12 00:50:28;;;;;;;8.60;2.38;;;;;;;18.21;59.98;100968.53;4997303;28;20077;-46
2023/06/12 00:52:57;;;;;;;6.00;2.03;;;;;;;18.19;59.77;100976.09;4996740;28;20505;-50
2023/06/12 00:55:24;;;;;;;3.65;1.92;;;;;;;18.15;60.60;100974.97;4997558;28;20026;-51
2023/06/12 00:57:51;;;;;;;4.43;1.95;;;;;;;18.15;61.48;100969.53;4996766;28;20101;-47
2023/06/12 01:00:19;;;;;;;4.22;1.92;;;;;;;18.15;61.62;100966.84;4996481;28;20081;-48
2023/06/12 01:03:07;;;;;;;4.38;2.20;;;;;;;18.06;61.10;100965.66;4996742;28;20055;-50
2023/06/12 01:05:36;;;;;;;3.72;2.15;;;;;;;17.89;61.23;100960.31;4997028;28;20055;-47
2023/06/12 01:08:29;;;;;;;3.53;2.30;;;;;;;17.90;60.88;100959.22;4996489;28;20030;-49
2023/06/12 01:11:04;;;;;;;3.25;1.80;;;;;;;17.90;61.24;100959.22;4996463;28;20057;-47
2023/06/12 01:13:33;;;;;;;4.18;1.95;;;;;;;17.83;61.34;100962.13;4996148;28;20034;-47
2023/06/12 01:15:59;;;;;;;4.25;1.70;;;;;;;17.80;61.26;100961.81;4996226;28;20034;-47
2023/06/12 01:18:26;;;;;;;4.30;1.90;;;;;;;17.72;61.93;100973.06;4996312;28;20105;-50
2023/06/12 01:20:58;;;;;;;2.80;1.80;;;;;;;17.61;62.56;100980.22;4996168;28;20022;-50
2023/06/12 01:23:58;;;;;;;4.65;2.03;;;;;;;17.35;62.78;100981.72;4996199;28;20030;-50
2023/06/12 01:26:26;;;;;;;8.55;2.47;;;;;;;17.35;63.02;100981.72;4996069;28;20028;-50
2023/06/12 01:29:32;;;;;;;7.20;2.38;;;;;;;17.05;63.78;100972.06;4996078;28;20085;-51
2023/06/12 01:32:16;;;;;;;4.35;1.90;;;;;;;17.11;63.98;100975.66;4996067;28;20483;-50
2023/06/12 01:34:51;;;;;;;3.33;1.70;;;;;;;17.17;63.50;100973.88;4995704;28;20038;-49
2023/06/12 01:38:01;;;;;;;5.47;1.85;;;;;;;17.19;63.91;100975.25;4994470;28;20117;-50
2023/06/12 01:40:30;;;;;;;3.85;2.20;;;;;;;17.15;63.92;100983.00;4974386;28;20078;-48
2023/06/12 01:42:57;;;;;;;3.45;2.08;;;;;;;17.09;64.05;100989.41;4991454;28;20494;-47
2023/06/12 01:45:24;;;;;;;4.50;2.17;;;;;;;17.08;64.51;100990.47;4995778;28;20038;-46
2023/06/12 01:47:50;;;;;;;3.35;2.15;;;;;;;17.06;64.33;100994.50;4995932;28;20089;-49
2023/06/12 01:50:17;;;;;;;5.00;1.80;;;;;;;17.04;64.58;100994.72;4995655;28;20027;-48
2023/06/12 01:52:43;;;;;;;4.95;2.10;;;;;;;16.82;65.49;100994.66;4995562;28;20027;-46
2023/06/12 01:55:10;;;;;;;2.78;1.98;;;;;;;16.85;65.63;100990.63;4995618;28;20089;-49
2023/06/12 01:57:38;;;;;;;3.50;2.15;;;;;;;16.74;66.04;100997.75;4995748;28;20043;-49
2023/06/12 02:00:05;;;;;;;7.18;2.90;;;;;;;16.64;66.87;100995.63;4993647;28;20100;-46
2023/06/12 02:02:34;;;;;;;6.13;2.75;;;;;;;16.54;67.63;101002.72;4995506;28;20027;-48
2023/06/12 02:05:00;;;;;;;5.72;2.58;;;;;;;16.50;67.92;101001.59;4995523;28;20431;-46
2023/06/12 02:07:27;;;;;;;4.05;2.28;;;;;;;16.44;68.44;100992.56;4995340;28;20050;-49
2023/06/12 02:09:53;;;;;;;4.20;2.40;;;;;;;16.31;68.69;101000.94;4995589;28;20023;-46
2023/06/12 02:12:19;;;;;;;3.97;2.10;;;;;;;16.19;69.32;101010.97;4995278;28;20191;-45
2023/06/12 02:14:47;;;;;;;4.32;2.30;;;;;;;16.24;69.33;101024.56;4995326;28;20030;-48
2023/06/12 02:17:14;;;;;;;3.67;2.03;;;;;;;16.22;69.32;101022.13;4995177;28;20026;-47
2023/06/12 02:19:40;;;;;;;4.00;2.10;;;;;;;16.09;69.85;101025.88;4995147;28;20158;-46
2023/06/12 02:22:06;;;;;;;6.13;2.28;;;;;;;16.14;69.58;101027.06;4995302;28;20030;-49
2023/06/12 02:24:33;;;;;;;5.15;2.00;;;;;;;16.03;69.83;101029.53;4995337;28;20467;-46
2023/06/12 02:26:59;;;;;;;3.67;1.60;;;;;;;16.05;69.71;101024.75;4995051;28;20038;-47
2023/06/12 02:29:26;;;;;;;4.13;2.13;;;;;;;15.91;70.52;101033.31;4994947;28;20391;-49
2023/06/12 02:31:52;;;;;;;4.05;1.83;;;;;;;15.90;70.77;101024.41;4995145;28;20030;-49
2023/06/12 02:34:19;;;;;;;5.30;2.20;;;;;;;15.83;70.83;101029.13;4994817;28;20027;-49
2023/06/12 02:36:47;;;;;;;4.38;1.90;;;;;;;15.71;71.04;101044.47;4994952;28;20137;-48
2023/06/12 02:39:13;;;;;;;2.83;1.92;;;;;;;15.79;71.02;101049.53;4994631;28;20447;-46
2023/06/12 02:41:41;;;;;;;5.18;2.70;;;;;;;15.71;71.02;101058.81;4995010;28;20032;-46
2023/06/12 02:44:08;;;;;;;8.68;2.85;;;;;;;15.53;71.79;101064.25;4994925;28;20437;-48
2023/06/12 02:46:49;;;;;;;8.00;3.20;;;;;;;15.47;72.45;101067.88;4994286;28;20026;-47
2023/06/12 02:49:16;;;;;;;5.93;3.28;;;;;;;15.58;71.86;101073.28;4994121;28;20356;-49
2023/06/12 02:51:43;;;;;;;10.70;3.55;;;;;;;15.49;72.36;101073.88;4994359;28;20018;-48
2023/06/12 02:54:09;;;;;;;7.97;2.80;;;;;;;15.52;71.95;101079.63;4994177;28;20026;-47
2023/06/12 02:56:35;;;;;;;7.80;3.20;;;;;;;15.49;72.53;101088.19;4994378;28;20037;-50
2023/06/12 02:59:03;;;;;;;5.95;2.85;;;;;;;15.44;72.44;101084.56;4994486;28;20027;-48
2023/06/12 03:01:30;;;;;;;9.10;4.07;;;;;;;15.50;72.18;101086.31;4994401;28;20105;-50
2023/06/12 03:03:58;;;;;;;12.02;3.42;;;;;;;15.46;72.31;101087.84;4995080;28;20379;-47
2023/06/12 03:06:28;;;;;;;8.60;3.22;;;;;;;15.46;71.67;101085.13;4994322;28;20030;-49
2023/06/12 03:08:55;;;;;;;7.60;3.47;;;;;;;15.51;72.25;101083.38;4994459;28;20029;-50
2023/06/12 03:11:22;;;;;;;6.25;3.22;;;;;;;15.47;72.22;101073.28;4994177;28;20444;-47
2023/06/12 03:13:48;;;;;;;7.35;3.60;;;;;;;15.60;71.51;101062.25;4994481;28;20030;-46
2023/06/12 03:16:15;;;;;;;7.35;3.65;;;;;;;15.52;71.67;101070.72;4994253;28;20118;-49
2023/06/12 03:18:41;;;;;;;6.57;3.20;;;;;;;15.44;72.35;101073.75;4994205;28;20031;-46
2023/06/12 03:21:07;;;;;;;8.20;3.22;;;;;;;15.40;72.71;101067.19;4994380;28;20026;-47
2023/06/12 03:23:33;;;;;;;7.55;3.22;;;;;;;15.24;73.29;101074.88;4994095;28;20463;-48
2023/06/12 03:26:00;;;;;;;6.25;2.92;;;;;;;15.16;73.58;101079.81;4994085;28;20034;-46
2023/06/12 03:28:26;;;;;;;7.15;3.08;;;;;;;15.10;73.86;101088.78;4993861;28;20085;-48
2023/06/12 03:30:53;;;;;;;10.57;3.63;;;;;;;15.18;73.44;101091.19;4993851;28;20030;-49
2023/06/12 03:33:19;;;;;;;8.55;3.53;;;;;;;15.14;73.72;101087.28;4993777;28;20038;-46
2023/06/12 03:35:46;;;;;;;9.25;3.40;;;;;;;15.02;74.75;101093.47;4993882;28;20027;-48
2023/06/12 03:38:12;;;;;;;8.13;3.15;;;;;;;15.08;74.22;101090.91;4993848;28;20033;-48
2023/06/12 03:40:38;;;;;;;11.82;3.45;;;;;;;15.14;73.80;101100.75;4993609;28;20078;-49
2023/06/12 03:43:05;;;;;;;6.95;2.90;;;;;;;14.99;74.40;101093.94;4993536;28;20033;-49
2023/06/12 03:45:31;;;;;;;7.28;3.03;;;;;;;14.92;74.60;101090.50;4993669;28;20387;-45
2023/06/12 03:47:57;;;;;;;10.00;3.03;;;;;;;14.96;74.61;101083.59;4993689;28;20052;-45
2023/06/12 03:50:23;;;;;;;8.27;2.60;;;;;;;15.13;74.07;101074.88;4993605;28;20426;-45
2023/06/12 03:52:50;;;;;;;8.35;3.10;;;;;;;15.10;74.26;101088.78;4993590;28;20030;-49
2023/06/12 03:55:16;;;;;;;7.22;3.15;;;;;;;14.78;75.35;101094.44;4993574;28;20109;-48
2023/06/12 03:57:43;;;;;;;6.78;2.80;;;;;;;14.77;75.54;101098.19;4993920;28;20037;-45
2023/06/12 04:00:11;;;;;;;4.32;2.75;;;;;;;14.83;75.36;101099.97;4993065;28;20587;-45
2023/06/12 04:02:37;;;;;;;7.10;2.80;;;;;;;14.79;75.53;101099.59;4993541;28;20038;-47
2023/06/12 04:05:04;;;;;;;6.75;2.90;;;;;;;14.74;75.20;101101.31;4993430;28;20026;-48
2023/06/12 04:07:30;;;;;;;5.70;2.53;;;;;;;14.74;75.23;101104.00;4993406;28;20387;-47
2023/06/12 04:09:57;;;;;;;6.32;2.55;;;;;;;14.80;75.14;101103.09;4993469;28;20030;-47
2023/06/12 04:12:23;;;;;;;4.18;2.78;;;;;;;14.75;75.33;101103.78;4992175;28;20113;-48
2023/06/12 04:14:50;;;;;;;3.92;2.53;;;;;;;14.70;75.72;101114.41;4993488;28;20077;-47
2023/06/12 04:17:17;;;;;;;6.43;2.75;;;;;;;14.72;75.85;101122.28;4993639;28;20129;-49
2023/06/12 04:19:43;;;;;;;6.80;3.08;;;;;;;14.83;75.50;101132.31;4994073;28;20026;-49
2023/06/12 04:22:12;;;;;;;5.28;3.28;;;;;;;14.86;75.23;101131.81;4993208;28;20022;-45
2023/06/12 04:24:42;;;;;;;6.97;3.22;;;;;;;14.91;75.33;101126.59;4993226;28;20093;-49
2023/06/12 04:27:13;;;;;;;5.90;2.70;;;;;;;14.94;75.24;101133.41;4993173;28;20105;-47
2023/06/12 04:29:42;;;;;;;7.47;2.80;;;;;;;15.00;75.14;101143.28;4993631;28;20367;-46
2023/06/12 04:32:13;;;;;;;6.88;2.92;;;;;;;15.05;74.90;101146.13;4993227;28;20026;-45
2023/06/12 04:34:41;;;;;;;6.78;2.50;;;;;;;14.93;75.26;101145.22;4993070;28;20463;-45
2023/06/12 04:37:20;;;;;;;4.68;2.25;;;;;;;14.94;75.18;101150.41;4993997;28;20105;-48
2023/06/12 04:39:46;;;;;;;4.00;2.30;;;;;;;15.01;74.77;101147.63;4993095;28;20042;-46
2023/06/12 04:42:16;;;;;;;6.40;2.42;;;;;;;14.89;75.13;101150.25;4993058;28;20022;-49
2023/06/12 04:44:46;;;;;;;4.82;2.42;;;;;;;14.82;75.12;101149.50;4993471;28;20031;-49
2023/06/12 04:47:14;;;;;;;7.80;2.20;;;;;;;14.67;75.49;101144.50;4993089;28;20395;-48
2023/06/12 04:49:45;;;;;;;6.22;2.60;;;;;;;14.60;75.86;101146.44;4993377;28;20027;-49
2023/06/12 04:52:12;;;;;;;5.40;2.20;;;;;;;14.77;75.25;101138.59;4993377;28;20521;-49
2023/06/12 04:54:41;;;;;;;4.22;2.22;;;;;;;14.75;74.78;101146.06;4992877;28;20030;-49
2023/06/12 04:57:16;;;;;;;4.95;2.33;;;;;;;14.67;75.36;101147.22;4992783;28;20037;-49
2023/06/12 04:59:45;;;;;;;7.78;3.00;;;;;;;14.63;75.57;101137.91;4992794;28;20023;-50
2023/06/12 05:02:12;;;;;;;4.45;2.28;;;;;;;14.73;75.21;101150.88;4993071;28;20069;-46
2023/06/12 05:04:41;;;;;;;6.35;2.45;;;;;;;14.59;75.60;101139.41;4992962;28;20035;-46
2023/06/12 05:07:17;;;;;;;7.90;2.80;;;;;;;14.59;76.25;101142.09;4992991;28;20380;-47
2023/06/12 05:09:44;;;;;;;7.45;2.78;;;;;;;14.53;76.57;101138.44;4993067;28;20026;-46
2023/06/12 05:12:11;;;;;;;6.05;2.80;;;;;;;14.58;76.21;101145.84;4994800;28;20063;-45
2023/06/12 05:14:42;;;;;;;4.95;2.60;;;;;;;14.44;77.14;101150.53;4996403;28;20026;-46
2023/06/12 05:17:09;;;;;;;7.93;2.80;;;;;;;14.38;77.22;101156.84;4996507;28;20035;-48
2023/06/12 05:19:39;;;;;;;6.07;2.20;;;;;;;14.50;76.47;101160.47;4996319;28;20559;-46
2023/06/12 05:22:05;;;;;;;10.75;3.10;;;;;;;14.45;77.26;101146.81;4996370;28;20527;-48
2023/06/12 05:24:32;;;;;;;6.25;2.28;;;;;;;14.52;77.09;101150.28;4996311;28;20030;-46
2023/06/12 05:27:00;;;;;;;3.83;2.38;;;;;;;14.48;76.98;101149.06;4996207;28;20069;-48
2023/06/12 05:29:26;;;;;;;4.55;2.47;;;;;;;14.45;77.05;101157.56;5011038;28;20102;-51
2023/06/12 05:31:53;;;;;;;5.10;2.10;;;;;;;14.42;76.75;101155.31;4996086;28;20052;-47
2023/06/12 05:34:19;;;;;;;9.70;2.45;;;;;;;14.46;76.76;101158.41;4996106;28;20037;-46
2023/06/12 05:36:46;;;;;;;4.75;1.95;;;;;;;14.53;76.73;101160.00;4996067;28;20050;-49
2023/06/12 05:39:12;;;;;;;4.97;2.28;;;;;;;14.53;76.69;101159.16;4996543;28;20047;-45
2023/06/12 05:41:39;;;;;;;3.38;1.88;;;;;;;14.48;77.18;101154.44;4995970;28;20023;-47
2023/06/12 05:44:06;;;;;;;4.53;1.95;;;;;;;14.42;77.67;101163.41;4995952;28;20022;-46
2023/06/12 05:46:34;;;;;;;5.95;2.80;;;;;;;14.43;77.90;101164.22;4995916;28;20026;-46
2023/06/12 05:49:00;;;;;;;4.15;2.20;;;;;;;14.44;77.88;101177.47;4995911;28;20089;-46
2023/06/12 05:51:28;;;;;;;6.55;2.95;;;;;;;14.33;78.67;101189.00;4995789;28;20022;-45
2023/06/12 05:53:54;;;;;;;4.50;2.65;;;;;;;14.30;78.79;101185.91;4995656;28;20058;-46
2023/06/12 05:56:22;;;;;;;4.57;2.47;;;;;;;14.46;78.26;101186.16;4995692;28;20026;-45
2023/06/12 05:58:48;;;;;;;8.32;2.88;;;;;;;14.36;77.90;101193.91;4995931;28;20402;-45
2023/06/12 06:01:17;;;;;;;6.13;2.00;;;;;;;14.35;78.06;101203.03;4996077;28;20072;-45
2023/06/12 06:03:45;;;;;;;5.18;2.22;;;;;;;14.28;78.64;101196.91;4996127;28;20027;-46
2023/06/12 06:06:15;;;;;;;3.08;1.95;;;;;;;14.28;78.33;101191.53;4995724;28;20027;-47
2023/06/12 06:08:42;;;;;;;5.82;2.40;;;;;;;14.28;78.97;101183.44;4995494;28;20364;-46
2023/06/12 06:11:09;;;;;;;8.27;2.30;;;;;;;14.37;78.58;101179.41;4995522;28;20498;-47
2023/06/12 06:13:35;;;;;;;5.57;2.83;;;;;;;14.25;78.92;101179.31;4995614;28;20030;-46
2023/06/12 06:16:02;;;;;;;7.32;2.53;;;;;;;14.26;78.95;101177.44;4995309;28;20034;-46
2023/06/12 06:18:29;;;;;;;4.47;2.55;;;;;;;14.14;79.91;101176.53;4995335;28;20037;-45
2023/06/12 06:20:55;;;;;;;5.97;2.80;;;;;;;14.23;79.51;101180.59;4995042;28;20027;-46
2023/06/12 06:23:22;;;;;;;7.35;2.60;;;;;;;14.35;79.06;101188.75;4994427;28;20058;-50
2023/06/12 06:25:48;;;;;;;4.00;2.22;;;;;;;14.40;78.06;101180.84;4995131;28;20030;-47
2023/06/12 06:28:15;;;;;;;7.15;2.08;;;;;;;14.34;78.86;101174.47;4995012;28;20537;-47
2023/06/12 06:30:41;;;;;;;3.67;2.10;;;;;;;14.36;78.29;101172.38;5010127;28;20387;-48
2023/06/12 06:33:08;;;;;;;4.85;1.85;;;;;;;14.27;78.61;101174.53;4994950;28;20022;-48
2023/06/12 06:35:34;;;;;;;4.57;1.98;;;;;;;14.26;78.72;101180.94;4994666;28;20382;-49
2023/06/12 06:38:00;;;;;;;5.53;2.03;;;;;;;14.27;79.03;101187.19;4994987;28;20022;-47
2023/06/12 06:40:27;;;;;;;3.67;1.70;;;;;;;14.31;78.69;101193.75;4994458;28;20038;-48
2023/06/12 06:42:53;;;;;;;5.15;1.92;;;;;;;14.38;78.25;101180.22;4994786;28;20022;-47
2023/06/12 06:45:20;;;;;;;3.85;1.83;;;;;;;14.35;78.92;101184.19;4994736;28;20467;-48
2023/06/12 06:47:46;;;;;;;4.30;1.92;;;;;;;14.24;79.44;101184.91;4994535;28;20109;-49
2023/06/12 06:50:12;;;;;;;5.20;1.52;;;;;;;14.27;79.30;101182.63;4994802;28;20030;-49
2023/06/12 06:52:39;;;;;;;3.78;1.75;;;;;;;14.26;79.28;101185.50;4994371;28;20026;-46
2023/06/12 06:55:05;;;;;;;5.47;2.30;;;;;;;14.23;79.77;101185.97;4994385;28;20026;-48
2023/06/12 06:57:33;;;;;;;5.88;2.08;;;;;;;14.31;79.30;101188.38;4994341;28;20114;-45
2023/06/12 07:00:05;;;;;;;3.53;1.77;;;;;;;14.16;80.01;101191.44;4994244;28;20033;-45
2023/06/12 07:02:31;;;;;;;4.47;1.75;;;;;;;14.38;78.62;101202.63;4994469;28;20031;-45
2023/06/12 07:04:58;;;;;;;4.90;2.25;;;;;;;14.36;78.55;101196.59;4994295;28;20034;-45
2023/06/12 07:07:24;;;;;;;6.63;1.95;;;;;;;14.34;78.94;101203.28;4994340;28;20083;-44
2023/06/12 07:09:50;;;;;;;2.75;2.10;;;;;;;14.26;79.64;101199.78;4994213;28;20033;-45
2023/06/12 07:12:16;;;;;;;5.70;2.55;;;;;;;14.35;79.10;101204.91;4994167;28;20081;-46
2023/06/12 07:14:43;;;;;;;4.07;1.95;;;;;;;14.35;79.16;101204.91;4994031;28;20049;-46
2023/06/12 07:17:09;;;;;;;3.58;1.75;;;;;;;14.56;77.97;101206.41;4994016;28;20049;-46
2023/06/12 07:19:35;;;;;;;5.50;1.70;;;;;;;14.52;77.93;101204.13;4994137;28;20096;-45
2023/06/12 07:22:01;;;;;;;3.15;1.30;;;;;;;14.44;78.15;101199.03;4993944;28;20026;-45
2023/06/12 07:24:28;;;;;;;3.35;1.33;;;;;;;14.40;78.08;101213.97;4993917;28;20116;-45
2023/06/12 07:26:54;;;;;;;1.42;0.98;;;;;;;14.34;78.40;101204.09;4994288;28;20431;-45
2023/06/12 07:29:22;;;;;;;3.05;1.20;;;;;;;14.34;78.44;101204.09;4993996;28;20077;-45
2023/06/12 07:31:49;;;;;;;3.05;1.00;;;;;;;14.39;77.79;101198.88;4993767;28;20372;-45
2023/06/12 07:34:16;;;;;;;2.35;1.20;;;;;;;14.20;78.84;101189.91;4993736;28;20470;-49
2023/06/12 07:36:43;;;;;;;3.47;1.33;;;;;;;14.25;78.57;101191.94;4993819;28;20057;-47
2023/06/12 07:39:09;;;;;;;2.45;1.00;;;;;;;14.18;79.06;101188.50;4993569;28;20121;-47
2023/06/12 07:41:39;;;;;;;1.70;0.95;;;;;;;14.19;78.60;101195.53;4994143;28;20026;-49
2023/06/12 07:44:06;;;;;;;2.90;1.10;;;;;;;14.21;78.49;101182.66;4993669;28;20371;-46
2023/06/12 07:46:32;;;;;;;2.25;1.02;;;;;;;14.17;78.98;101192.25;4993718;28;20066;-45
2023/06/12 07:48:59;;;;;;;2.17;1.20;;;;;;;14.13;78.86;101194.53;4993479;28;20493;-45
2023/06/12 07:51:25;;;;;;;3.60;1.50;;;;;;;14.16;78.75;101196.81;4993474;28;20062;-47
2023/06/12 07:53:51;;;;;;;4.50;1.20;;;;;;;14.23;78.83;101192.19;4993561;28;20042;-45
2023/06/12 07:56:18;;;;;;;3.30;1.33;;;;;;;14.16;79.03;101199.50;4993418;28;20033;-46
2023/06/12 07:58:46;;;;;;;2.97;1.20;;;;;;;14.20;78.86;101198.00;4993439;28;20513;-45
2023/06/12 08:01:13;;;;;;;3.10;1.58;;;;;;;14.30;78.29;101194.81;4993479;28;20472;-45
2023/06/12 08:03:40;;;;;;;1.75;0.98;;;;;;;14.19;78.38;101200.91;4993532;28;20034;-45
2023/06/12 08:06:10;;;;;;;2.40;1.20;;;;;;;14.20;78.58;101197.16;4993541;28;20026;-47
2023/06/12 08:08:47;;;;;;;4.80;1.30;;;;;;;14.19;78.43;101195.53;4993422;28;20399;-47
2023/06/12 08:11:15;;;;;;;1.35;0.80;;;;;;;14.21;77.93;101193.44;4993426;28;20031;-48
2023/06/12 08:13:41;;;;;;;2.33;1.08;;;;;;;14.18;78.15;101183.13;4993284;28;20507;-47
2023/06/12 08:16:08;;;;;;;3.00;1.13;;;;;;;14.33;77.24;101182.78;4993510;28;20042;-45
2023/06/12 08:18:35;;;;;;;1.70;0.95;;;;;;;14.22;77.37;101187.03;4994108;28;20506;-45
2023/06/12 08:21:01;;;;;;;1.75;0.80;;;;;;;14.12;77.93;101165.16;4993309;28;20030;-46
2023/06/12 08:23:27;;;;;;;1.48;0.80;;;;;;;14.14;77.61;101152.28;4993384;28;20030;-48
2023/06/12 08:25:54;;;;;;;2.05;0.88;;;;;;;14.19;76.84;101161.34;4993321;28;20026;-48
2023/06/12 08:28:20;;;;;;;2.67;0.95;;;;;;;14.07;77.40;101173.91;4993647;28;20026;-49
2023/06/12 08:30:46;;;;;;;1.98;0.80;;;;;;;13.96;77.49;101180.81;4993259;28;20161;-48
2023/06/12 08:33:16;;;;;;;1.23;0.70;;;;;;;14.05;77.13;101173.31;4993445;28;20018;-48
2023/06/12 08:35:43;;;;;;;1.80;0.55;;;;;;;14.09;76.83;101170.97;4993354;28;20030;-50
2023/06/12 08:38:09;;;;;;;1.83;0.70;;;;;;;14.08;76.68;101177.41;4993353;28;20026;-47
2023/06/12 08:40:36;;;;;;;1.13;0.60;;;;;;;14.06;76.64;101174.13;4993058;28;20046;-48
2023/06/12 08:43:04;;;;;;;0.93;0.60;;;;;;;14.03;76.87;101185.31;4993149;28;20037;-48
2023/06/12 08:45:32;;;;;;;1.48;0.93;;;;;;;14.04;76.88;101182.41;4993081;28;20420;-47
2023/06/12 08:48:01;;;;;;;0.70;0.68;;;;;;;13.96;77.29;101182.69;4996691;28;20056;-48
2023/06/12 08:50:28;;;;;;;2.35;1.08;;;;;;;14.00;77.50;101184.72;4997252;28;20468;-49
2023/06/12 08:52:56;;;;;;;0.75;0.60;;;;;;;14.02;77.47;101189.06;4996691;28;20480;-45
2023/06/12 08:55:24;;;;;;;1.52;1.00;;;;;;;13.94;78.10;101192.88;4996764;28;20102;-46
2023/06/12 08:57:51;;;;;;;1.85;0.85;;;;;;;13.86;79.04;101196.63;4996498;28;20037;-50
2023/06/12 09:00:19;;;;;;;2.92;1.17;;;;;;;13.98;78.85;101194.88;4997015;28;20027;-46
2023/06/12 09:02:56;;;;;;;2.17;1.42;;;;;;;13.81;79.72;101204.53;4996522;28;20026;-48
2023/06/12 09:05:29;;;;;;;1.63;0.98;;;;;;;13.90;79.69;101214.00;4996546;28;20032;-48
2023/06/12 09:08:00;;;;;;;5.15;1.17;;;;;;;13.84;79.74;101220.25;4996543;28;20118;-47
2023/06/12 09:10:26;;;;;;;2.75;0.95;;;;;;;13.91;79.42;101221.03;4996781;28;20065;-48
2023/06/12 09:12:57;;;;;;;2.67;0.90;;;;;;;13.92;79.35;101222.66;4996389;28;20027;-47
2023/06/12 09:15:24;;;;;;;4.20;0.90;;;;;;;14.03;79.20;101225.69;4996479;28;20026;-46
2023/06/12 09:17:53;;;;;;;1.25;0.95;;;;;;;14.02;78.92;101218.66;4996329;28;20050;-45
2023/06/12 09:20:31;;;;;;;2.58;1.17;;;;;;;14.07;78.66;101224.22;4996250;28;20018;-48
2023/06/12 09:22:58;;;;;;;2.25;0.90;;;;;;;14.02;78.77;101221.34;4996721;28;20117;-47
2023/06/12 09:25:34;;;;;;;2.05;0.80;;;;;;;14.04;78.48;101211.19;4996180;28;20035;-49
2023/06/12 09:28:03;;;;;;;2.40;0.70;;;;;;;14.07;78.76;101218.84;4996217;28;20489;-45
2023/06/12 09:30:33;;;;;;;1.45;0.68;;;;;;;14.08;78.66;101205.16;4995956;28;20027;-46
2023/06/12 09:33:00;;;;;;;1.50;0.65;;;;;;;13.98;79.38;101197.56;4995923;28;20053;-49
2023/06/12 09:35:27;;;;;;;1.48;0.80;;;;;;;14.05;78.98;101211.00;4995999;28;20076;-46
2023/06/12 09:37:54;;;;;;;2.00;0.70;;;;;;;13.99;78.94;101203.75;5011019;28;20033;-46
2023/06/12 09:40:21;;;;;;;1.58;0.68;;;;;;;14.02;78.78;101211.41;4995672;28;20486;-46
2023/06/12 09:42:48;;;;;;;1.90;0.70;;;;;;;14.01;78.91;101215.16;4996233;28;20026;-45
2023/06/12 09:45:17;;;;;;;2.53;0.50;;;;;;;13.94;79.06;101219.78;4996005;28;20050;-49
2023/06/12 09:47:48;;;;;;;0.90;0.70;;;;;;;13.87;79.55;101222.50;4996515;28;20057;-46
2023/06/12 09:50:19;;;;;;;3.67;0.60;;;;;;;13.88;79.69;101228.69;4995747;28;20126;-46
2023/06/12 09:52:47;;;;;;;1.73;0.65;;;;;;;13.91;79.52;101225.56;4995611;28;20023;-46
2023/06/12 09:55:15;;;;;;;2.33;0.70;;;;;;;13.96;79.16;101213.13;4995571;28;20394;-46
2023/06/12 09:57:52;;;;;;;2.97;0.90;;;;;;;13.95;79.38;101216.03;4995040;28;20033;-45
2023/06/12 10:00:21;;;;;;;1.05;0.70;;;;;;;13.98;79.24;101219.09;4995687;28;20429;-46
2023/06/12 10:03:00;;;;;;;2.47;0.85;;;;;;;13.94;79.85;101219.78;4995345;28;20109;-46
2023/06/12 10:05:51;;;;;;;3.30;0.60;;;;;;;14.02;79.25;101226.75;4995494;28;20038;-48
2023/06/12 10:08:18;;;;;;;2.72;0.90;;;;;;;13.91;80.00;101229.09;4995695;28;20109;-45
2023/06/12 10:10:46;;;;;;;2.15;0.75;;;;;;;14.04;79.58;101238.09;4994133;28;20026;-46
2023/06/12 10:13:13;;;;;;;2.20;0.80;;;;;;;13.88;80.30;101240.31;4995154;28;20025;-47
2023/06/12 10:15:40;;;;;;;1.17;0.75;;;;;;;13.97;80.23;101246.22;4995174;28;20355;-46
2023/06/12 10:18:10;;;;;;;1.17;0.80;;;;;;;13.98;79.98;101231.72;4995327;28;20332;-46
2023/06/12 10:20:37;;;;;;;4.72;1.38;;;;;;;14.02;79.67;101238.31;4995558;28;20036;-47
2023/06/12 10:23:04;;;;;;;1.23;0.98;;;;;;;13.98;79.77;101243.31;4995274;28;20030;-47
2023/06/12 10:25:32;;;;;;;1.02;0.80;;;;;;;13.96;79.91;101250.78;4995060;28;20026;-46
2023/06/12 10:28:00;;;;;;;2.42;1.20;;;;;;;14.00;79.96;101248.50;4995008;28;20060;-46
2023/06/12 10:30:26;;;;;;;4.13;1.23;;;;;;;14.06;79.59;101249.50;4995128;28;20057;-50
2023/06/12 10:32:52;;;;;;;3.08;1.15;;;;;;;14.04;79.52;101255.06;4994981;28;20069;-49
2023/06/12 10:35:32;;;;;;;3.45;1.13;;;;;;;14.06;79.55;101254.88;4994950;28;20076;-49
2023/06/12 10:37:58;;;;;;;1.55;0.80;;;;;;;14.07;79.13;101249.25;4995140;28;20035;-47
2023/06/12 10:40:25;;;;;;;2.05;0.80;;;;;;;13.96;79.69;101256.19;4994553;28;20130;-47
2023/06/12 10:42:54;;;;;;;3.03;1.00;;;;;;;13.99;79.82;101258.44;4995655;28;20065;-46
2023/06/12 10:45:26;;;;;;;2.90;0.98;;;;;;;13.91;79.77;101269.47;4994824;28;20065;-46
2023/06/12 10:48:07;;;;;;;2.28;1.05;;;;;;;14.00;79.63;101278.09;4994748;28;20022;-45
2023/06/12 10:50:44;;;;;;;4.97;0.98;;;;;;;14.04;79.36;101284.69;4994539;28;20102;-46
2023/06/12 10:53:26;;;;;;;1.63;0.70;;;;;;;14.00;79.15;101278.09;4994724;28;20053;-46
2023/06/12 10:56:07;;;;;;;1.15;0.60;;;;;;;14.17;78.60;101273.00;4994646;28;20040;-47
2023/06/12 10:58:41;;;;;;;2.95;0.75;;;;;;;14.09;78.57;101271.38;4994692;28;20023;-45
2023/06/12 11:01:10;;;;;;;1.50;1.00;;;;;;;14.08;78.57;101287.78;4994861;28;20030;-46
2023/06/12 11:03:39;;;;;;;2.28;0.88;;;;;;;14.03;78.88;101287.59;4994784;28;20033;-46
2023/06/12 11:06:16;;;;;;;2.53;0.80;;;;;;;14.09;78.26;101294.78;4994494;28;20503;-46
2023/06/12 11:08:45;;;;;;;2.70;0.90;;;;;;;13.90;79.41;101289.34;4994651;28;20027;-47
2023/06/12 11:11:13;;;;;;;0.95;0.60;;;;;;;13.87;79.76;101280.88;4994235;28;20486;-46
2023/06/12 11:13:40;;;;;;;1.85;0.77;;;;;;;13.96;79.39;101269.63;4994482;28;20034;-49
2023/06/12 11:16:07;;;;;;;1.33;0.70;;;;;;;13.92;79.91;101284.56;4994287;28;20438;-46
2023/06/12 11:18:33;;;;;;;0.98;0.65;;;;;;;14.03;79.50;101295.66;4994242;28;20478;-46
2023/06/12 11:20:59;;;;;;;2.58;0.73;;;;;;;14.05;79.47;101301.66;4994596;28;20026;-48
2023/06/12 11:23:28;;;;;;;1.20;0.60;;;;;;;14.04;79.75;101290.06;4994452;28;20034;-45
2023/06/12 11:25:59;;;;;;;1.77;0.73;;;;;;;13.94;79.94;101289.75;4994120;28;20022;-48
2023/06/12 11:28:28;;;;;;;2.65;0.80;;;;;;;13.88;80.40;101293.28;4993956;28;20073;-46
2023/06/12 11:30:54;;;;;;;1.58;0.75;;;;;;;13.88;80.25;101295.97;4994685;28;20027;-46